sensor_id;sensor_type;location;lat;lon;timestamp;P1;durP1;ratioP1;P2;durP2;ratioP2
20456;SDS011;10387;51.102;6.848;2023-11-18T00:01:32;85.80;;;39.10;;
20456;SDS011;10387;51.102;6.848;2023-11-18T00:03:58;96.53;;;40.03;;
20456;SDS011;10387;51.102;6.848;2023-11-18T00:06:24;95.27;;;41.03;;
20456;SDS011;10387;51.102;6.848;2023-11-18T00:08:50;104.03;;;43.07;;
20456;SDS011;10387;51.102;6.848;2023-11-18T00:11:17;102.33;;;41.40;;
20456;SDS011;10387;51.102;6.848;2023-11-18T00:13:43;99.93;;;39.83;;
20456;SDS011;10387;51.102;6.848;2023-11-18T00:16:10;87.30;;;38.57;;
20456;SDS011;10387;51.102;6.848;2023-11-18T00:18:38;88.77;;;38.30;;
20456;SDS011;10387;51.102;6.848;2023-11-18T00:21:05;88.93;;;38.00;;
20456;SDS011;10387;51.102;6.848;2023-11-18T00:23:31;86.20;;;38.60;;
20456;SDS011;10387;51.102;6.848;2023-11-18T00:25:57;95.97;;;39.80;;
20456;SDS011;10387;51.102;6.848;2023-11-18T00:28:23;100.37;;;43.03;;
20456;SDS011;10387;51.102;6.848;2023-11-18T00:30:50;95.93;;;41.03;;
20456;SDS011;10387;51.102;6.848;2023-11-18T00:33:17;98.77;;;40.60;;
20456;SDS011;10387;51.102;6.848;2023-11-18T00:35:43;98.80;;;40.73;;
20456;SDS011;10387;51.102;6.848;2023-11-18T00:38:10;91.93;;;41.00;;
20456;SDS011;10387;51.102;6.848;2023-11-18T00:40:36;95.70;;;40.37;;
20456;SDS011;10387;51.102;6.848;2023-11-18T00:43:02;98.83;;;43.07;;
20456;SDS011;10387;51.102;6.848;2023-11-18T00:45:29;94.87;;;41.03;;
20456;SDS011;10387;51.102;6.848;2023-11-18T00:47:57;87.87;;;40.97;;
20456;SDS011;10387;51.102;6.848;2023-11-18T00:50:23;101.40;;;41.20;;
20456;SDS011;10387;51.102;6.848;2023-11-18T00:52:49;98.40;;;41.30;;
20456;SDS011;10387;51.102;6.848;2023-11-18T00:55:15;100.43;;;42.00;;
20456;SDS011;10387;51.102;6.848;2023-11-18T00:57:45;106.53;;;41.00;;
20456;SDS011;10387;51.102;6.848;2023-11-18T01:00:12;95.40;;;40.53;;
20456;SDS011;10387;51.102;6.848;2023-11-18T01:02:43;88.80;;;38.67;;
20456;SDS011;10387;51.102;6.848;2023-11-18T01:05:14;92.20;;;39.13;;
20456;SDS011;10387;51.102;6.848;2023-11-18T01:07:40;98.63;;;41.17;;
20456;SDS011;10387;51.102;6.848;2023-11-18T01:10:08;96.60;;;38.17;;
20456;SDS011;10387;51.102;6.848;2023-11-18T01:12:35;98.07;;;41.73;;
20456;SDS011;10387;51.102;6.848;2023-11-18T01:15:02;101.70;;;39.67;;
20456;SDS011;10387;51.102;6.848;2023-11-18T01:17:29;100.83;;;41.67;;
20456;SDS011;10387;51.102;6.848;2023-11-18T01:19:56;97.67;;;42.60;;
20456;SDS011;10387;51.102;6.848;2023-11-18T01:22:23;98.87;;;43.83;;
20456;SDS011;10387;51.102;6.848;2023-11-18T01:24:50;109.70;;;43.30;;
20456;SDS011;10387;51.102;6.848;2023-11-18T01:27:18;98.90;;;42.47;;
20456;SDS011;10387;51.102;6.848;2023-11-18T01:29:46;101.13;;;40.87;;
20456;SDS011;10387;51.102;6.848;2023-11-18T01:32:12;91.37;;;40.70;;
20456;SDS011;10387;51.102;6.848;2023-11-18T01:34:39;90.90;;;38.87;;
20456;SDS011;10387;51.102;6.848;2023-11-18T01:37:08;86.93;;;37.07;;
20456;SDS011;10387;51.102;6.848;2023-11-18T01:39:34;86.07;;;37.00;;
20456;SDS011;10387;51.102;6.848;2023-11-18T01:42:01;85.37;;;36.80;;
20456;SDS011;10387;51.102;6.848;2023-11-18T01:44:28;88.17;;;35.70;;
20456;SDS011;10387;51.102;6.848;2023-11-18T01:46:58;90.87;;;36.20;;
20456;SDS011;10387;51.102;6.848;2023-11-18T01:49:24;79.43;;;33.37;;
20456;SDS011;10387;51.102;6.848;2023-11-18T01:51:54;75.17;;;34.50;;
20456;SDS011;10387;51.102;6.848;2023-11-18T01:54:22;78.67;;;35.27;;
20456;SDS011;10387;51.102;6.848;2023-11-18T01:56:50;79.60;;;35.83;;
20456;SDS011;10387;51.102;6.848;2023-11-18T01:59:17;84.27;;;35.97;;
20456;SDS011;10387;51.102;6.848;2023-11-18T02:01:48;83.90;;;35.63;;
20456;SDS011;10387;51.102;6.848;2023-11-18T02:04:15;77.30;;;34.97;;
20456;SDS011;10387;51.102;6.848;2023-11-18T02:06:45;80.83;;;35.43;;
20456;SDS011;10387;51.102;6.848;2023-11-18T02:09:13;77.17;;;35.63;;
20456;SDS011;10387;51.102;6.848;2023-11-18T02:11:44;67.73;;;34.53;;
20456;SDS011;10387;51.102;6.848;2023-11-18T02:14:13;68.10;;;33.73;;
20456;SDS011;10387;51.102;6.848;2023-11-18T02:16:43;68.67;;;34.67;;
20456;SDS011;10387;51.102;6.848;2023-11-18T02:19:16;70.87;;;33.87;;
20456;SDS011;10387;51.102;6.848;2023-11-18T02:21:46;69.10;;;35.30;;
20456;SDS011;10387;51.102;6.848;2023-11-18T02:24:27;72.90;;;33.87;;
20456;SDS011;10387;51.102;6.848;2023-11-18T02:26:57;62.50;;;33.37;;
20456;SDS011;10387;51.102;6.848;2023-11-18T02:29:24;67.00;;;33.50;;
20456;SDS011;10387;51.102;6.848;2023-11-18T02:31:52;68.40;;;33.70;;
20456;SDS011;10387;51.102;6.848;2023-11-18T02:34:22;72.20;;;35.47;;
20456;SDS011;10387;51.102;6.848;2023-11-18T02:36:50;68.83;;;33.30;;
20456;SDS011;10387;51.102;6.848;2023-11-18T02:39:20;72.17;;;32.43;;
20456;SDS011;10387;51.102;6.848;2023-11-18T02:41:48;70.77;;;31.70;;
20456;SDS011;10387;51.102;6.848;2023-11-18T02:44:17;68.40;;;30.87;;
20456;SDS011;10387;51.102;6.848;2023-11-18T02:46:45;67.90;;;31.40;;
20456;SDS011;10387;51.102;6.848;2023-11-18T02:49:14;67.67;;;32.03;;
20456;SDS011;10387;51.102;6.848;2023-11-18T02:51:43;64.70;;;30.37;;
20456;SDS011;10387;51.102;6.848;2023-11-18T02:54:12;64.33;;;30.77;;
20456;SDS011;10387;51.102;6.848;2023-11-18T02:56:39;66.40;;;30.00;;
20456;SDS011;10387;51.102;6.848;2023-11-18T02:59:08;65.70;;;30.47;;
20456;SDS011;10387;51.102;6.848;2023-11-18T03:01:37;60.77;;;30.10;;
20456;SDS011;10387;51.102;6.848;2023-11-18T03:04:04;58.43;;;28.33;;
20456;SDS011;10387;51.102;6.848;2023-11-18T03:06:30;65.60;;;31.33;;
20456;SDS011;10387;51.102;6.848;2023-11-18T03:09:02;60.83;;;29.27;;
20456;SDS011;10387;51.102;6.848;2023-11-18T03:11:32;50.53;;;27.80;;
20456;SDS011;10387;51.102;6.848;2023-11-18T03:13:58;56.43;;;27.20;;
20456;SDS011;10387;51.102;6.848;2023-11-18T03:16:24;59.27;;;28.57;;
20456;SDS011;10387;51.102;6.848;2023-11-18T03:18:50;57.33;;;26.57;;
20456;SDS011;10387;51.102;6.848;2023-11-18T03:21:17;58.37;;;28.37;;
20456;SDS011;10387;51.102;6.848;2023-11-18T03:23:46;58.83;;;28.90;;
20456;SDS011;10387;51.102;6.848;2023-11-18T03:26:12;59.10;;;27.97;;
20456;SDS011;10387;51.102;6.848;2023-11-18T03:28:41;63.10;;;28.87;;
20456;SDS011;10387;51.102;6.848;2023-11-18T03:31:07;62.23;;;30.23;;
20456;SDS011;10387;51.102;6.848;2023-11-18T03:33:34;62.27;;;29.87;;
20456;SDS011;10387;51.102;6.848;2023-11-18T03:36:00;59.10;;;29.60;;
20456;SDS011;10387;51.102;6.848;2023-11-18T03:38:26;68.80;;;30.03;;
20456;SDS011;10387;51.102;6.848;2023-11-18T03:40:55;60.13;;;29.90;;
20456;SDS011;10387;51.102;6.848;2023-11-18T03:43:23;60.23;;;28.97;;
20456;SDS011;10387;51.102;6.848;2023-11-18T03:45:49;58.57;;;30.10;;
20456;SDS011;10387;51.102;6.848;2023-11-18T03:48:17;53.17;;;27.97;;
20456;SDS011;10387;51.102;6.848;2023-11-18T03:50:43;49.93;;;28.30;;
20456;SDS011;10387;51.102;6.848;2023-11-18T03:53:10;50.97;;;27.77;;
20456;SDS011;10387;51.102;6.848;2023-11-18T03:55:37;58.57;;;28.43;;
20456;SDS011;10387;51.102;6.848;2023-11-18T03:58:04;59.07;;;28.20;;
20456;SDS011;10387;51.102;6.848;2023-11-18T04:00:30;50.87;;;28.03;;
20456;SDS011;10387;51.102;6.848;2023-11-18T04:02:58;57.83;;;28.03;;
20456;SDS011;10387;51.102;6.848;2023-11-18T04:05:24;61.27;;;29.40;;
20456;SDS011;10387;51.102;6.848;2023-11-18T04:07:50;59.93;;;27.67;;
20456;SDS011;10387;51.102;6.848;2023-11-18T04:10:17;56.23;;;27.87;;
20456;SDS011;10387;51.102;6.848;2023-11-18T04:12:44;58.93;;;28.13;;
20456;SDS011;10387;51.102;6.848;2023-11-18T04:15:12;53.37;;;26.10;;
20456;SDS011;10387;51.102;6.848;2023-11-18T04:17:39;61.13;;;28.20;;
20456;SDS011;10387;51.102;6.848;2023-11-18T04:20:05;60.63;;;28.07;;
20456;SDS011;10387;51.102;6.848;2023-11-18T04:22:42;60.50;;;28.80;;
20456;SDS011;10387;51.102;6.848;2023-11-18T04:25:10;66.53;;;29.37;;
20456;SDS011;10387;51.102;6.848;2023-11-18T04:27:37;64.23;;;30.43;;
20456;SDS011;10387;51.102;6.848;2023-11-18T04:30:04;58.60;;;28.63;;
20456;SDS011;10387;51.102;6.848;2023-11-18T04:32:30;61.07;;;28.43;;
20456;SDS011;10387;51.102;6.848;2023-11-18T04:34:58;65.10;;;29.10;;
20456;SDS011;10387;51.102;6.848;2023-11-18T04:37:25;63.60;;;29.97;;
20456;SDS011;10387;51.102;6.848;2023-11-18T04:39:51;65.30;;;31.03;;
20456;SDS011;10387;51.102;6.848;2023-11-18T04:42:19;75.47;;;33.37;;
20456;SDS011;10387;51.102;6.848;2023-11-18T04:44:45;62.47;;;31.37;;
20456;SDS011;10387;51.102;6.848;2023-11-18T04:47:11;70.33;;;30.70;;
20456;SDS011;10387;51.102;6.848;2023-11-18T04:49:38;69.93;;;32.03;;
20456;SDS011;10387;51.102;6.848;2023-11-18T04:52:04;75.43;;;29.90;;
20456;SDS011;10387;51.102;6.848;2023-11-18T04:54:31;64.93;;;29.27;;
20456;SDS011;10387;51.102;6.848;2023-11-18T04:56:58;63.63;;;30.30;;
20456;SDS011;10387;51.102;6.848;2023-11-18T04:59:24;68.03;;;32.57;;
20456;SDS011;10387;51.102;6.848;2023-11-18T05:01:50;63.43;;;30.77;;
20456;SDS011;10387;51.102;6.848;2023-11-18T05:04:18;65.77;;;31.23;;
20456;SDS011;10387;51.102;6.848;2023-11-18T05:06:44;66.07;;;32.23;;
20456;SDS011;10387;51.102;6.848;2023-11-18T05:09:10;65.97;;;32.13;;
20456;SDS011;10387;51.102;6.848;2023-11-18T05:11:37;68.17;;;33.03;;
20456;SDS011;10387;51.102;6.848;2023-11-18T05:14:04;67.47;;;31.90;;
20456;SDS011;10387;51.102;6.848;2023-11-18T05:16:32;62.63;;;34.67;;
20456;SDS011;10387;51.102;6.848;2023-11-18T05:18:58;64.57;;;32.70;;
20456;SDS011;10387;51.102;6.848;2023-11-18T05:21:24;67.47;;;31.63;;
20456;SDS011;10387;51.102;6.848;2023-11-18T05:23:50;73.47;;;33.00;;
20456;SDS011;10387;51.102;6.848;2023-11-18T05:26:16;64.50;;;31.10;;
20456;SDS011;10387;51.102;6.848;2023-11-18T05:28:43;65.87;;;30.53;;
20456;SDS011;10387;51.102;6.848;2023-11-18T05:31:10;64.50;;;30.07;;
20456;SDS011;10387;51.102;6.848;2023-11-18T05:33:36;55.30;;;29.97;;
20456;SDS011;10387;51.102;6.848;2023-11-18T05:36:03;58.37;;;28.47;;
20456;SDS011;10387;51.102;6.848;2023-11-18T05:38:30;62.07;;;29.03;;
20456;SDS011;10387;51.102;6.848;2023-11-18T05:41:00;61.43;;;28.43;;
20456;SDS011;10387;51.102;6.848;2023-11-18T05:43:31;58.00;;;28.07;;
20456;SDS011;10387;51.102;6.848;2023-11-18T05:46:05;55.20;;;26.63;;
20456;SDS011;10387;51.102;6.848;2023-11-18T05:48:45;59.33;;;28.63;;
20456;SDS011;10387;51.102;6.848;2023-11-18T05:51:12;57.70;;;28.03;;
20456;SDS011;10387;51.102;6.848;2023-11-18T05:53:41;61.63;;;27.37;;
20456;SDS011;10387;51.102;6.848;2023-11-18T05:56:11;58.83;;;28.47;;
20456;SDS011;10387;51.102;6.848;2023-11-18T05:58:37;57.70;;;27.67;;
20456;SDS011;10387;51.102;6.848;2023-11-18T06:01:08;55.80;;;28.97;;
20456;SDS011;10387;51.102;6.848;2023-11-18T06:03:36;61.93;;;28.70;;
20456;SDS011;10387;51.102;6.848;2023-11-18T06:06:06;62.90;;;28.60;;
20456;SDS011;10387;51.102;6.848;2023-11-18T06:08:33;59.63;;;30.23;;
20456;SDS011;10387;51.102;6.848;2023-11-18T06:10:59;51.37;;;27.37;;
20456;SDS011;10387;51.102;6.848;2023-11-18T06:13:30;58.13;;;27.93;;
20456;SDS011;10387;51.102;6.848;2023-11-18T06:15:56;51.93;;;26.90;;
20456;SDS011;10387;51.102;6.848;2023-11-18T06:18:24;54.90;;;27.57;;
20456;SDS011;10387;51.102;6.848;2023-11-18T06:20:50;57.27;;;27.47;;
20456;SDS011;10387;51.102;6.848;2023-11-18T06:23:16;53.90;;;25.40;;
20456;SDS011;10387;51.102;6.848;2023-11-18T06:25:44;48.77;;;25.77;;
20456;SDS011;10387;51.102;6.848;2023-11-18T06:28:11;48.50;;;24.57;;
20456;SDS011;10387;51.102;6.848;2023-11-18T06:30:37;47.37;;;23.70;;
20456;SDS011;10387;51.102;6.848;2023-11-18T06:33:04;45.37;;;25.47;;
20456;SDS011;10387;51.102;6.848;2023-11-18T06:35:30;52.70;;;25.17;;
20456;SDS011;10387;51.102;6.848;2023-11-18T06:37:58;47.53;;;26.00;;
20456;SDS011;10387;51.102;6.848;2023-11-18T06:40:24;51.80;;;25.90;;
20456;SDS011;10387;51.102;6.848;2023-11-18T06:42:52;52.50;;;25.33;;
20456;SDS011;10387;51.102;6.848;2023-11-18T06:45:26;45.57;;;24.80;;
20456;SDS011;10387;51.102;6.848;2023-11-18T06:47:52;48.70;;;25.67;;
20456;SDS011;10387;51.102;6.848;2023-11-18T06:50:19;47.60;;;25.30;;
20456;SDS011;10387;51.102;6.848;2023-11-18T06:52:49;52.30;;;25.20;;
20456;SDS011;10387;51.102;6.848;2023-11-18T06:55:16;47.57;;;24.93;;
20456;SDS011;10387;51.102;6.848;2023-11-18T06:57:43;45.90;;;23.73;;
20456;SDS011;10387;51.102;6.848;2023-11-18T07:00:09;49.57;;;24.27;;
20456;SDS011;10387;51.102;6.848;2023-11-18T07:02:39;47.50;;;24.43;;
20456;SDS011;10387;51.102;6.848;2023-11-18T07:05:05;49.70;;;25.90;;
20456;SDS011;10387;51.102;6.848;2023-11-18T07:07:31;49.60;;;25.13;;
20456;SDS011;10387;51.102;6.848;2023-11-18T07:09:57;48.70;;;24.33;;
20456;SDS011;10387;51.102;6.848;2023-11-18T07:12:23;47.30;;;25.47;;
20456;SDS011;10387;51.102;6.848;2023-11-18T07:14:49;48.00;;;23.30;;
20456;SDS011;10387;51.102;6.848;2023-11-18T07:17:16;48.90;;;23.07;;
20456;SDS011;10387;51.102;6.848;2023-11-18T07:19:44;46.40;;;25.43;;
20456;SDS011;10387;51.102;6.848;2023-11-18T07:22:10;45.63;;;23.57;;
20456;SDS011;10387;51.102;6.848;2023-11-18T07:24:36;43.20;;;22.53;;
20456;SDS011;10387;51.102;6.848;2023-11-18T07:27:05;41.20;;;22.20;;
20456;SDS011;10387;51.102;6.848;2023-11-18T07:29:32;47.57;;;23.67;;
20456;SDS011;10387;51.102;6.848;2023-11-18T07:31:58;43.80;;;21.83;;
20456;SDS011;10387;51.102;6.848;2023-11-18T07:34:26;44.03;;;22.97;;
20456;SDS011;10387;51.102;6.848;2023-11-18T07:36:52;46.10;;;23.60;;
20456;SDS011;10387;51.102;6.848;2023-11-18T07:39:20;47.57;;;23.33;;
20456;SDS011;10387;51.102;6.848;2023-11-18T07:41:55;47.67;;;23.23;;
20456;SDS011;10387;51.102;6.848;2023-11-18T07:44:27;42.13;;;21.63;;
20456;SDS011;10387;51.102;6.848;2023-11-18T07:46:53;43.13;;;22.30;;
20456;SDS011;10387;51.102;6.848;2023-11-18T07:49:21;45.30;;;21.97;;
20456;SDS011;10387;51.102;6.848;2023-11-18T07:51:51;42.57;;;21.20;;
20456;SDS011;10387;51.102;6.848;2023-11-18T07:54:17;38.60;;;21.70;;
20456;SDS011;10387;51.102;6.848;2023-11-18T07:56:43;38.97;;;21.60;;
20456;SDS011;10387;51.102;6.848;2023-11-18T07:59:12;42.13;;;21.80;;
20456;SDS011;10387;51.102;6.848;2023-11-18T08:01:44;39.80;;;21.87;;
20456;SDS011;10387;51.102;6.848;2023-11-18T08:04:11;37.60;;;21.27;;
20456;SDS011;10387;51.102;6.848;2023-11-18T08:06:40;33.77;;;18.27;;
20456;SDS011;10387;51.102;6.848;2023-11-18T08:09:08;35.60;;;20.87;;
20456;SDS011;10387;51.102;6.848;2023-11-18T08:11:39;32.17;;;19.00;;
20456;SDS011;10387;51.102;6.848;2023-11-18T08:14:09;33.87;;;19.37;;
20456;SDS011;10387;51.102;6.848;2023-11-18T08:16:35;31.67;;;18.37;;
20456;SDS011;10387;51.102;6.848;2023-11-18T08:19:01;33.33;;;18.50;;
20456;SDS011;10387;51.102;6.848;2023-11-18T08:21:37;32.53;;;18.40;;
20456;SDS011;10387;51.102;6.848;2023-11-18T08:24:04;30.80;;;17.90;;
20456;SDS011;10387;51.102;6.848;2023-11-18T08:26:30;34.57;;;20.60;;
20456;SDS011;10387;51.102;6.848;2023-11-18T08:28:56;31.67;;;18.57;;
20456;SDS011;10387;51.102;6.848;2023-11-18T08:31:22;31.27;;;17.37;;
20456;SDS011;10387;51.102;6.848;2023-11-18T08:33:48;26.87;;;16.47;;
20456;SDS011;10387;51.102;6.848;2023-11-18T08:36:14;28.93;;;18.63;;
20456;SDS011;10387;51.102;6.848;2023-11-18T08:38:40;26.50;;;15.97;;
20456;SDS011;10387;51.102;6.848;2023-11-18T08:41:09;27.63;;;16.07;;
20456;SDS011;10387;51.102;6.848;2023-11-18T08:43:35;24.97;;;17.07;;
20456;SDS011;10387;51.102;6.848;2023-11-18T08:46:01;26.53;;;15.57;;
20456;SDS011;10387;51.102;6.848;2023-11-18T08:48:27;26.53;;;15.50;;
20456;SDS011;10387;51.102;6.848;2023-11-18T08:50:53;22.43;;;13.87;;
20456;SDS011;10387;51.102;6.848;2023-11-18T08:53:19;23.50;;;15.23;;
20456;SDS011;10387;51.102;6.848;2023-11-18T08:55:51;25.80;;;13.93;;
20456;SDS011;10387;51.102;6.848;2023-11-18T08:58:19;23.70;;;14.60;;
20456;SDS011;10387;51.102;6.848;2023-11-18T09:00:50;21.83;;;14.00;;
20456;SDS011;10387;51.102;6.848;2023-11-18T09:03:17;24.87;;;14.63;;
20456;SDS011;10387;51.102;6.848;2023-11-18T09:05:51;22.30;;;13.40;;
20456;SDS011;10387;51.102;6.848;2023-11-18T09:11:02;23.33;;;13.57;;
20456;SDS011;10387;51.102;6.848;2023-11-18T09:13:30;20.70;;;13.60;;
20456;SDS011;10387;51.102;6.848;2023-11-18T09:18:23;23.03;;;13.40;;
20456;SDS011;10387;51.102;6.848;2023-11-18T09:20:50;20.33;;;12.10;;
20456;SDS011;10387;51.102;6.848;2023-11-18T09:23:17;22.73;;;12.73;;
20456;SDS011;10387;51.102;6.848;2023-11-18T09:25:45;19.37;;;12.70;;
20456;SDS011;10387;51.102;6.848;2023-11-18T09:28:12;19.20;;;12.50;;
20456;SDS011;10387;51.102;6.848;2023-11-18T09:30:40;19.87;;;12.40;;
20456;SDS011;10387;51.102;6.848;2023-11-18T09:33:18;18.17;;;12.23;;
20456;SDS011;10387;51.102;6.848;2023-11-18T09:36:00;22.17;;;13.77;;
20456;SDS011;10387;51.102;6.848;2023-11-18T09:38:26;19.80;;;13.37;;
20456;SDS011;10387;51.102;6.848;2023-11-18T09:40:59;21.00;;;12.87;;
20456;SDS011;10387;51.102;6.848;2023-11-18T09:43:30;19.77;;;12.67;;
20456;SDS011;10387;51.102;6.848;2023-11-18T09:46:25;21.40;;;13.00;;
20456;SDS011;10387;51.102;6.848;2023-11-18T09:51:40;18.53;;;12.10;;
20456;SDS011;10387;51.102;6.848;2023-11-18T09:54:16;16.57;;;11.87;;
20456;SDS011;10387;51.102;6.848;2023-11-18T09:59:54;16.60;;;11.40;;
20456;SDS011;10387;51.102;6.848;2023-11-18T10:02:23;19.77;;;12.40;;
20456;SDS011;10387;51.102;6.848;2023-11-18T10:04:50;16.10;;;11.07;;
20456;SDS011;10387;51.102;6.848;2023-11-18T10:07:23;18.57;;;12.73;;
20456;SDS011;10387;51.102;6.848;2023-11-18T10:09:58;18.53;;;11.47;;
20456;SDS011;10387;51.102;6.848;2023-11-18T10:12:24;18.50;;;12.50;;
20456;SDS011;10387;51.102;6.848;2023-11-18T10:14:51;19.70;;;12.00;;
20456;SDS011;10387;51.102;6.848;2023-11-18T10:17:18;16.33;;;11.50;;
20456;SDS011;10387;51.102;6.848;2023-11-18T10:19:54;18.07;;;11.90;;
20456;SDS011;10387;51.102;6.848;2023-11-18T10:22:37;19.03;;;11.60;;
20456;SDS011;10387;51.102;6.848;2023-11-18T10:25:05;18.40;;;11.43;;
20456;SDS011;10387;51.102;6.848;2023-11-18T10:27:31;16.03;;;10.80;;
20456;SDS011;10387;51.102;6.848;2023-11-18T10:30:03;15.90;;;10.23;;
20456;SDS011;10387;51.102;6.848;2023-11-18T10:32:30;19.43;;;11.73;;
20456;SDS011;10387;51.102;6.848;2023-11-18T10:35:00;17.63;;;10.77;;
20456;SDS011;10387;51.102;6.848;2023-11-18T10:37:27;15.53;;;10.60;;
20456;SDS011;10387;51.102;6.848;2023-11-18T10:39:55;15.83;;;10.33;;
20456;SDS011;10387;51.102;6.848;2023-11-18T10:42:25;13.83;;;10.07;;
20456;SDS011;10387;51.102;6.848;2023-11-18T10:44:59;15.03;;;10.40;;
20456;SDS011;10387;51.102;6.848;2023-11-18T10:47:28;15.30;;;10.90;;
20456;SDS011;10387;51.102;6.848;2023-11-18T10:49:55;17.20;;;10.67;;
20456;SDS011;10387;51.102;6.848;2023-11-18T10:52:21;15.00;;;11.83;;
20456;SDS011;10387;51.102;6.848;2023-11-18T10:54:54;15.73;;;10.77;;
20456;SDS011;10387;51.102;6.848;2023-11-18T10:57:24;16.33;;;10.67;;
20456;SDS011;10387;51.102;6.848;2023-11-18T11:00:03;15.77;;;9.50;;
20456;SDS011;10387;51.102;6.848;2023-11-18T11:02:39;15.50;;;10.87;;
20456;SDS011;10387;51.102;6.848;2023-11-18T11:05:10;14.97;;;10.37;;
20456;SDS011;10387;51.102;6.848;2023-11-18T11:07:47;14.93;;;10.17;;
20456;SDS011;10387;51.102;6.848;2023-11-18T11:10:14;14.13;;;10.07;;
20456;SDS011;10387;51.102;6.848;2023-11-18T11:12:49;14.03;;;10.00;;
20456;SDS011;10387;51.102;6.848;2023-11-18T11:15:22;14.37;;;10.73;;
20456;SDS011;10387;51.102;6.848;2023-11-18T11:17:51;12.00;;;9.57;;
20456;SDS011;10387;51.102;6.848;2023-11-18T11:20:21;15.70;;;10.67;;
20456;SDS011;10387;51.102;6.848;2023-11-18T11:28:21;11.93;;;8.57;;
20456;SDS011;10387;51.102;6.848;2023-11-18T11:36:05;11.40;;;8.70;;
20456;SDS011;10387;51.102;6.848;2023-11-18T11:38:36;11.90;;;8.07;;
20456;SDS011;10387;51.102;6.848;2023-11-18T11:41:03;12.20;;;8.53;;
20456;SDS011;10387;51.102;6.848;2023-11-18T11:43:30;11.43;;;9.43;;
20456;SDS011;10387;51.102;6.848;2023-11-18T11:45:59;14.63;;;9.17;;
20456;SDS011;10387;51.102;6.848;2023-11-18T11:48:29;12.17;;;9.10;;
20456;SDS011;10387;51.102;6.848;2023-11-18T11:53:40;14.73;;;10.17;;
20456;SDS011;10387;51.102;6.848;2023-11-18T11:56:10;15.93;;;10.60;;
20456;SDS011;10387;51.102;6.848;2023-11-18T11:58:40;18.17;;;9.97;;
20456;SDS011;10387;51.102;6.848;2023-11-18T12:03:43;13.23;;;10.43;;
20456;SDS011;10387;51.102;6.848;2023-11-18T12:06:21;13.97;;;9.87;;
20456;SDS011;10387;51.102;6.848;2023-11-18T12:08:51;12.47;;;9.60;;
20456;SDS011;10387;51.102;6.848;2023-11-18T12:11:18;14.40;;;10.00;;
20456;SDS011;10387;51.102;6.848;2023-11-18T12:14:01;13.90;;;9.40;;
20456;SDS011;10387;51.102;6.848;2023-11-18T12:19:32;15.73;;;10.80;;
20456;SDS011;10387;51.102;6.848;2023-11-18T12:22:11;18.30;;;10.80;;
20456;SDS011;10387;51.102;6.848;2023-11-18T12:24:43;16.27;;;10.87;;
20456;SDS011;10387;51.102;6.848;2023-11-18T12:27:09;17.20;;;11.33;;
20456;SDS011;10387;51.102;6.848;2023-11-18T12:29:43;15.13;;;10.80;;
20456;SDS011;10387;51.102;6.848;2023-11-18T12:32:09;12.33;;;9.57;;
20456;SDS011;10387;51.102;6.848;2023-11-18T12:35:11;12.03;;;9.67;;
20456;SDS011;10387;51.102;6.848;2023-11-18T12:40:32;14.40;;;9.73;;
20456;SDS011;10387;51.102;6.848;2023-11-18T12:43:07;13.23;;;9.50;;
20456;SDS011;10387;51.102;6.848;2023-11-18T12:45:42;12.70;;;9.40;;
20456;SDS011;10387;51.102;6.848;2023-11-18T12:48:16;12.83;;;9.50;;
20456;SDS011;10387;51.102;6.848;2023-11-18T12:50:52;13.53;;;9.20;;
20456;SDS011;10387;51.102;6.848;2023-11-18T12:53:20;13.93;;;10.47;;
20456;SDS011;10387;51.102;6.848;2023-11-18T12:55:49;13.10;;;8.50;;
20456;SDS011;10387;51.102;6.848;2023-11-18T12:58:16;14.53;;;8.77;;
20456;SDS011;10387;51.102;6.848;2023-11-18T13:00:43;11.07;;;8.53;;
20456;SDS011;10387;51.102;6.848;2023-11-18T13:03:10;16.27;;;9.67;;
20456;SDS011;10387;51.102;6.848;2023-11-18T13:05:36;14.63;;;9.27;;
20456;SDS011;10387;51.102;6.848;2023-11-18T13:08:03;14.40;;;8.90;;
20456;SDS011;10387;51.102;6.848;2023-11-18T13:10:30;14.60;;;8.97;;
20456;SDS011;10387;51.102;6.848;2023-11-18T13:12:56;11.87;;;8.67;;
20456;SDS011;10387;51.102;6.848;2023-11-18T13:15:24;15.63;;;8.30;;
20456;SDS011;10387;51.102;6.848;2023-11-18T13:17:59;11.97;;;8.87;;
20456;SDS011;10387;51.102;6.848;2023-11-18T13:20:26;12.50;;;8.43;;
20456;SDS011;10387;51.102;6.848;2023-11-18T13:22:53;12.07;;;8.80;;
20456;SDS011;10387;51.102;6.848;2023-11-18T13:25:21;13.33;;;8.80;;
20456;SDS011;10387;51.102;6.848;2023-11-18T13:27:47;13.33;;;9.13;;
20456;SDS011;10387;51.102;6.848;2023-11-18T13:30:14;11.83;;;8.23;;
20456;SDS011;10387;51.102;6.848;2023-11-18T13:32:42;12.80;;;8.10;;
20456;SDS011;10387;51.102;6.848;2023-11-18T13:35:09;12.13;;;7.60;;
20456;SDS011;10387;51.102;6.848;2023-11-18T13:37:38;13.13;;;6.83;;
20456;SDS011;10387;51.102;6.848;2023-11-18T13:40:07;9.40;;;7.27;;
20456;SDS011;10387;51.102;6.848;2023-11-18T13:42:33;12.80;;;7.00;;
20456;SDS011;10387;51.102;6.848;2023-11-18T13:45:05;9.57;;;6.37;;
20456;SDS011;10387;51.102;6.848;2023-11-18T13:47:34;8.50;;;6.60;;
20456;SDS011;10387;51.102;6.848;2023-11-18T13:50:05;7.97;;;5.83;;
20456;SDS011;10387;51.102;6.848;2023-11-18T13:52:32;8.77;;;6.37;;
20456;SDS011;10387;51.102;6.848;2023-11-18T13:54:58;11.57;;;6.67;;
20456;SDS011;10387;51.102;6.848;2023-11-18T13:57:25;9.27;;;6.53;;
20456;SDS011;10387;51.102;6.848;2023-11-18T13:59:52;8.23;;;5.87;;
20456;SDS011;10387;51.102;6.848;2023-11-18T14:02:19;8.37;;;6.03;;
20456;SDS011;10387;51.102;6.848;2023-11-18T14:04:46;8.73;;;6.23;;
20456;SDS011;10387;51.102;6.848;2023-11-18T14:07:14;8.57;;;6.33;;
20456;SDS011;10387;51.102;6.848;2023-11-18T14:09:42;9.70;;;7.10;;
20456;SDS011;10387;51.102;6.848;2023-11-18T14:12:10;7.57;;;6.20;;
20456;SDS011;10387;51.102;6.848;2023-11-18T14:14:36;10.90;;;6.13;;
20456;SDS011;10387;51.102;6.848;2023-11-18T14:17:03;11.60;;;6.50;;
20456;SDS011;10387;51.102;6.848;2023-11-18T14:19:31;9.30;;;6.13;;
20456;SDS011;10387;51.102;6.848;2023-11-18T14:22:00;9.83;;;6.73;;
20456;SDS011;10387;51.102;6.848;2023-11-18T14:24:26;9.27;;;6.53;;
20456;SDS011;10387;51.102;6.848;2023-11-18T14:26:57;10.43;;;6.87;;
20456;SDS011;10387;51.102;6.848;2023-11-18T14:29:23;9.73;;;6.40;;
20456;SDS011;10387;51.102;6.848;2023-11-18T14:31:50;8.30;;;6.00;;
20456;SDS011;10387;51.102;6.848;2023-11-18T14:34:16;10.30;;;6.77;;
20456;SDS011;10387;51.102;6.848;2023-11-18T14:36:43;7.97;;;7.17;;
20456;SDS011;10387;51.102;6.848;2023-11-18T14:39:10;9.90;;;6.13;;
20456;SDS011;10387;51.102;6.848;2023-11-18T14:41:38;8.37;;;6.30;;
20456;SDS011;10387;51.102;6.848;2023-11-18T14:44:08;10.43;;;6.50;;
20456;SDS011;10387;51.102;6.848;2023-11-18T14:46:35;12.20;;;7.07;;
20456;SDS011;10387;51.102;6.848;2023-11-18T14:49:04;10.80;;;6.67;;
20456;SDS011;10387;51.102;6.848;2023-11-18T14:51:33;8.83;;;6.20;;
20456;SDS011;10387;51.102;6.848;2023-11-18T14:53:59;9.07;;;6.97;;
20456;SDS011;10387;51.102;6.848;2023-11-18T14:56:25;9.70;;;6.63;;
20456;SDS011;10387;51.102;6.848;2023-11-18T14:58:51;11.37;;;8.33;;
20456;SDS011;10387;51.102;6.848;2023-11-18T15:01:18;11.67;;;8.03;;
20456;SDS011;10387;51.102;6.848;2023-11-18T15:03:45;10.57;;;6.87;;
20456;SDS011;10387;51.102;6.848;2023-11-18T15:06:11;15.23;;;7.80;;